KKJ weather

Kitakyūshū Airport
Kitakyūshū, Fukuoka Prefecture, Japan

Public forecast

Using degrees Celsius for public forecast. Weather courtesy of forecast.io.

Current aviation weather report (METAR) for Kitakyūshū Airport

Retrieved 2019/11/13 21:00 UTC (19 minutes ago):

RJFR 132100Z 32018KT 9999 -SHRA FEW020 BKN035 BKN060 15/08 Q1017

Aviation forecast (TAF) for Kitakyūshū Airport

Retrieved 2019/11/13 18:00 UTC (3 hours ago):

TAF RJFR 131710Z 1318/1500 32020KT 9999 FEW015 BKN035 TEMPO 1318/1400 31026G36KT BECMG 1406/1409 34007KT